Time;durP1;ratioP1;P1;durP2;ratioP2;P2;SDS_P1;SDS_P2;PMS_P1;PMS_P2;Temp;Humidity;BMP_temperature;BMP_pressure;BME280_temperature;BME280_humidity;BME280_pressure;Samples;Min_cycle;Max_cycle;Signal;HPM_P1;HPM_P2
2020/12/20 00:02:10;;;;;;;25.53;20.40;;;9.30;79.90;;;;;;4592802;28;20842;-77
2020/12/20 00:04:26;;;;;;;23.97;20.37;;;;;;;;;;4592323;28;20561;-78
2020/12/20 00:06:47;;;;;;;26.60;21.50;;;8.40;74.60;;;;;;4592517;28;20443;-76
2020/12/20 00:09:07;;;;;;;25.00;20.50;;;8.50;74.80;;;;;;4592570;28;20558;-76
2020/12/20 00:11:23;;;;;;;24.13;19.63;;;9.00;80.40;;;;;;4593578;28;20482;-77
2020/12/20 00:13:39;;;;;;;25.97;21.47;;;;;;;;;;4592292;28;20467;-75
2020/12/20 00:15:56;;;;;;;26.73;20.27;;;8.30;79.80;;;;;;4593748;28;20951;-76
2020/12/20 00:18:12;;;;;;;26.87;21.40;;;;;;;;;;4590763;28;20444;-76
2020/12/20 00:20:32;;;;;;;26.63;21.27;;;;;;;;;;4593627;28;20428;-79
2020/12/20 00:22:48;;;;;;;28.47;22.00;;;;;;;;;;4591357;28;21073;-77
2020/12/20 00:25:04;;;;;;;26.80;22.13;;;;;;;;;;4591180;28;20451;-77
2020/12/20 00:27:20;;;;;;;27.97;20.53;;;;;;;;;;4588847;28;20452;-77
2020/12/20 00:29:38;;;;;;;27.20;21.67;;;;;;;;;;4593017;28;20519;-76
2020/12/20 00:31:55;;;;;;;26.00;20.07;;;8.60;74.60;;;;;;4590948;28;20449;-76
2020/12/20 00:34:11;;;;;;;20.43;16.07;;;;;;;;;;4593255;28;20447;-77
2020/12/20 00:36:26;;;;;;;22.70;18.37;;;;;;;;;;4591786;28;20483;-75
2020/12/20 00:38:42;;;;;;;23.23;18.03;;;;;;;;;;4593426;28;20797;-75
2020/12/20 00:40:57;;;;;;;21.93;17.20;;;8.30;80.30;;;;;;4592212;28;20444;-76
2020/12/20 00:43:13;;;;;;;22.20;17.27;;;;;;;;;;4593060;28;21001;-76
2020/12/20 00:45:28;;;;;;;18.97;15.93;;;8.20;80.50;;;;;;4591264;28;20909;-77
2020/12/20 00:47:45;;;;;;;20.37;16.13;;;;;;;;;;4592990;28;20436;-75
2020/12/20 00:50:00;;;;;;;19.30;15.80;;;;;;;;;;4591666;28;21012;-76
2020/12/20 00:52:16;;;;;;;19.47;16.43;;;;;;;;;;4591061;28;20551;-76
2020/12/20 00:54:33;;;;;;;19.80;16.17;;;6.10;79.00;;;;;;4592771;28;20470;-77
2020/12/20 00:56:49;;;;;;;22.90;19.13;;;;;;;;;;4590806;28;20451;-77
2020/12/20 00:59:05;;;;;;;25.47;21.13;;;;;;;;;;4577436;28;20449;-78
2020/12/20 01:01:23;;;;;;;23.57;19.97;;;;;;;;;;4593828;28;20439;-77
2020/12/20 01:03:39;;;;;;;21.97;18.20;;;8.80;78.80;;;;;;4595240;28;20916;-76
2020/12/20 01:05:56;;;;;;;22.37;18.60;;;;;;;;;;4593514;28;20447;-77
2020/12/20 01:08:12;;;;;;;22.70;18.47;;;;;;;;;;4595322;28;20531;-77
2020/12/20 01:10:29;;;;;;;18.63;16.63;;;;;;;;;;4593231;28;20827;-77
2020/12/20 01:12:44;;;;;;;22.60;18.37;;;8.00;79.60;;;;;;4595373;28;20443;-76
2020/12/20 01:15:09;;;;;;;21.17;17.53;;;;;;;;;;4593088;28;20439;-76
2020/12/20 01:17:29;;;;;;;23.20;19.67;;;8.10;79.80;;;;;;4595288;28;20840;-76
2020/12/20 01:19:49;;;;;;;24.17;20.37;;;;;;;;;;4593490;28;20435;-76
2020/12/20 01:22:10;;;;;;;24.03;19.93;;;6.00;76.40;;;;;;4596013;28;20475;-75
2020/12/20 01:24:29;;;;;;;24.17;20.53;;;;;;;;;;4593806;28;20459;-76
2020/12/20 01:26:46;;;;;;;21.47;18.13;;;;;;;;;;4594451;28;20437;-76
2020/12/20 01:29:03;;;;;;;21.47;17.63;;;;;;;;;;4593973;28;20482;-77
2020/12/20 01:31:19;;;;;;;20.77;18.17;;;;;;;;;;4593656;28;20436;-78
2020/12/20 01:33:46;;;;;;;22.13;17.97;;;;;;;;;;4594542;28;20442;-76
2020/12/20 01:36:04;;;;;;;21.37;19.00;;;8.20;74.50;;;;;;4594344;28;20455;-76
2020/12/20 01:38:20;;;;;;;20.30;17.33;;;7.10;78.90;;;;;;4578599;28;20847;-78
2020/12/20 01:40:37;;;;;;;24.33;18.30;;;;;;;;;;4594389;28;20467;-79
2020/12/20 01:42:54;;;;;;;22.60;19.13;;;;;;;;;;4594792;28;20448;-77
2020/12/20 01:45:16;;;;;;;20.70;18.07;;;;;;;;;;4594179;28;20926;-78
2020/12/20 01:47:32;;;;;;;22.70;19.73;;;;;;;;;;4596108;28;20436;-75
2020/12/20 01:49:56;;;;;;;24.63;20.03;;;5.60;77.90;;;;;;4592667;28;20473;-76
2020/12/20 01:52:13;;;;;;;21.27;18.23;;;;;;;;;;4594825;28;20962;-78
2020/12/20 01:54:34;;;;;;;21.27;18.20;;;;;;;;;;4592526;28;20555;-76
2020/12/20 01:56:59;;;;;;;21.53;17.97;;;;;;;;;;4592722;28;20436;-78
2020/12/20 01:59:28;;;;;;;21.67;17.50;;;;;;;;;;4592276;28;20490;-76
2020/12/20 02:01:50;;;;;;;21.93;18.00;;;;;;;;;;4575676;28;20449;-77
2020/12/20 02:04:19;;;;;;;21.43;18.90;;;;;;;;;;4592769;28;20490;-78
2020/12/20 02:06:37;;;;;;;20.87;18.07;;;;;;;;;;4591007;28;20460;-78
2020/12/20 02:08:55;;;;;;;23.97;19.90;;;;;;;;;;4593874;28;20522;-76
2020/12/20 02:11:13;;;;;;;22.10;19.20;;;;;;;;;;4589318;28;20443;-77
2020/12/20 02:13:32;;;;;;;22.93;20.20;;;;;;;;;;4594181;28;20811;-76
2020/12/20 02:15:48;;;;;;;22.07;19.40;;;;;;;;;;4590535;28;20451;-77
2020/12/20 02:18:04;;;;;;;22.97;19.20;;;;;;;;;;4594222;28;20483;-77
2020/12/20 02:20:27;;;;;;;24.13;19.73;;;;;;;;;;4592222;28;20471;-76
2020/12/20 02:22:57;;;;;;;25.63;21.73;;;;;;;;;;4594079;28;20432;-76
2020/12/20 02:25:16;;;;;;;24.90;21.07;;;6.10;78.80;;;;;;4576657;28;20445;-77
2020/12/20 02:27:47;;;;;;;23.80;20.23;;;;;;;;;;4593006;28;20876;-76
2020/12/20 02:30:05;;;;;;;28.93;23.97;;;7.50;79.60;;;;;;4593842;28;20864;-78
2020/12/20 02:32:21;;;;;;;26.87;22.13;;;5.70;78.40;;;;;;4576040;28;20453;-77
2020/12/20 02:34:37;;;;;;;26.63;22.33;;;;;;;;;;4593554;28;20554;-77
2020/12/20 02:36:53;;;;;;;28.10;23.43;;;;;;;;;;4593449;28;20479;-77
2020/12/20 02:39:20;;;;;;;27.00;22.33;;;;;;;;;;4593719;28;20429;-76
2020/12/20 02:41:45;;;;;;;28.87;23.13;;;;;;;;;;4592914;28;20934;-76
2020/12/20 02:44:01;;;;;;;28.90;23.87;;;;;;;;;;4593900;28;20930;-76
2020/12/20 02:46:18;;;;;;;32.00;26.20;;;;;;;;;;4575623;28;20437;-75
2020/12/20 02:48:39;;;;;;;30.53;25.07;;;;;;;;;;4593555;28;20428;-74
2020/12/20 02:50:55;;;;;;;32.37;25.23;;;;;;;;;;4591812;28;20444;-75
2020/12/20 02:53:11;;;;;;;32.73;25.73;;;;;;;;;;4594393;28;20530;-77
2020/12/20 02:55:29;;;;;;;31.50;25.00;;;;;;;;;;4593503;28;20451;-77
2020/12/20 02:57:55;;;;;;;29.60;23.73;;;;;;;;;;4592490;28;20432;-76
2020/12/20 03:00:39;;;;;;;30.17;25.13;;;8.90;80.90;;;;;;4578365;28;20482;-76
2020/12/20 03:03:00;;;;;;;27.93;22.40;;;;;;;;;;4591608;28;20476;-77
2020/12/20 03:05:17;;;;;;;27.37;22.53;;;5.70;78.60;;;;;;4576932;28;20445;-75
2020/12/20 03:07:35;;;;;;;26.57;22.77;;;;;;;;;;4591277;28;20432;-76
2020/12/20 03:09:52;;;;;;;29.03;22.67;;;7.60;80.10;;;;;;4593405;28;20456;-77
2020/12/20 03:12:10;;;;;;;24.77;20.10;;;;;;;;;;4592741;28;20883;-78
2020/12/20 03:14:29;;;;;;;25.03;20.03;;;;;;;;;;4594671;28;20440;-77
2020/12/20 03:16:48;;;;;;;23.83;21.03;;;;;;;;;;4591529;28;20977;-77
2020/12/20 03:19:04;;;;;;;26.23;20.87;;;;;;;;;;4593351;28;20490;-76
2020/12/20 03:21:21;;;;;;;27.40;22.50;;;;;;;;;;4592481;28;20482;-76
2020/12/20 03:24:00;;;;;;;28.37;22.23;;;;;;;;;;4593428;28;20470;-77
2020/12/20 03:26:38;;;;;;;25.03;20.60;;;;;;;;;;4593299;28;20864;-75
2020/12/20 03:29:17;;;;;;;26.63;20.87;;;5.90;77.80;;;;;;4572934;28;20557;-76
2020/12/20 03:31:42;;;;;;;23.93;20.30;;;9.40;80.10;;;;;;4594393;28;20479;-77
2020/12/20 03:34:14;;;;;;;22.63;18.80;;;;;;;;;;4574990;28;20532;-77
2020/12/20 03:36:35;;;;;;;22.77;19.40;;;;;;;;;;4592256;28;20479;-77
2020/12/20 03:38:53;;;;;;;25.93;21.43;;;6.10;78.10;;;;;;4591535;28;20804;-76
2020/12/20 03:41:08;;;;;;;25.10;20.20;;;;;;;;;;4591877;28;20471;-76
2020/12/20 03:43:26;;;;;;;24.43;19.27;;;9.20;79.90;;;;;;4591867;28;20838;-77
2020/12/20 03:45:46;;;;;;;25.57;21.23;;;;;;;;;;4591874;28;20437;-77
2020/12/20 03:48:05;;;;;;;25.33;20.93;;;7.30;78.50;;;;;;4592317;28;20491;-75
2020/12/20 03:50:23;;;;;;;26.37;21.10;;;;;;;;;;4591242;28;20911;-76
2020/12/20 03:52:39;;;;;;;26.20;21.50;;;;;;;;;;4592693;28;20527;-76
2020/12/20 03:55:05;;;;;;;23.77;20.23;;;;;;;;;;4590865;28;20539;-77
2020/12/20 03:57:21;;;;;;;23.87;19.07;;;;;;;;;;4593898;28;20454;-77
2020/12/20 03:59:39;;;;;;;20.77;16.97;;;;;;;;;;4590903;28;20432;-76
2020/12/20 04:02:01;;;;;;;22.90;19.20;;;7.60;78.60;;;;;;4594746;28;20424;-79
2020/12/20 04:04:17;;;;;;;24.00;19.97;;;;;;;;;;4592015;28;20455;-77
2020/12/20 04:06:39;;;;;;;22.43;18.20;;;;;;;;;;4593708;28;20546;-77
2020/12/20 04:08:55;;;;;;;21.40;17.30;;;;;;;;;;4590724;28;20479;-77
2020/12/20 04:11:29;;;;;;;23.80;19.53;;;6.20;77.30;;;;;;4593428;28;20528;-78
2020/12/20 04:13:45;;;;;;;20.70;17.33;;;7.50;77.90;;;;;;4575114;28;20983;-76
2020/12/20 04:16:05;;;;;;;21.37;17.70;;;6.30;72.10;;;;;;4591403;28;20883;-75
2020/12/20 04:18:22;;;;;;;22.10;18.47;;;6.20;77.00;;;;;;4592159;28;20443;-76
2020/12/20 04:20:38;;;;;;;22.77;18.33;;;7.80;77.80;;;;;;4590970;28;20472;-76
2020/12/20 04:22:55;;;;;;;22.63;18.70;;;8.40;78.50;;;;;;4591964;28;21020;-75
2020/12/20 04:25:40;;;;;;;20.70;17.47;;;;;;;;;;4575362;28;21011;-78
2020/12/20 04:28:07;;;;;;;19.47;16.40;;;;;;;;;;4592677;28;20528;-77
2020/12/20 04:30:24;;;;;;;19.60;17.20;;;;;;;;;;4591394;28;20487;-76
2020/12/20 04:32:42;;;;;;;19.37;16.77;;;;;;;;;;4575952;28;20457;-76
2020/12/20 04:34:59;;;;;;;20.77;17.93;;;;;;;;;;4595062;28;20841;-76
2020/12/20 04:37:14;;;;;;;23.67;19.30;;;;;;;;;;4596763;28;20439;-77
2020/12/20 04:39:47;;;;;;;24.63;20.17;;;;;;;;;;4594421;28;20985;-77
2020/12/20 04:42:07;;;;;;;26.30;21.10;;;;;;;;;;4594743;28;20456;-77
2020/12/20 04:44:24;;;;;;;25.27;20.13;;;;;;;;;;4595252;28;20443;-77
2020/12/20 04:46:48;;;;;;;24.17;19.80;;;;;;;;;;4594320;28;20925;-77
2020/12/20 04:49:14;;;;;;;24.90;19.77;;;8.50;73.50;;;;;;4595767;28;21066;-77
2020/12/20 04:51:45;;;;;;;23.67;19.07;;;6.20;77.40;;;;;;4593891;28;20438;-78
2020/12/20 04:54:03;;;;;;;23.50;19.73;;;;;;;;;;4595680;28;20978;-77
2020/12/20 04:56:27;;;;;;;25.37;20.57;;;5.60;71.70;;;;;;4593386;28;20516;-76
2020/12/20 04:58:49;;;;;;;24.57;19.20;;;;;;;;;;4596944;28;20932;-75
2020/12/20 05:01:06;;;;;;;23.47;18.60;;;8.60;78.80;;;;;;4593863;28;20440;-75
2020/12/20 05:03:22;;;;;;;21.93;18.20;;;;;;;;;;4595239;28;21014;-77
2020/12/20 05:05:41;;;;;;;24.57;19.30;;;;;;;;;;4595417;28;20436;-76
2020/12/20 05:07:57;;;;;;;25.90;20.53;;;;;;;;;;4594378;28;20455;-76
2020/12/20 05:10:14;;;;;;;23.00;17.83;;;;;;;;;;4594483;28;20511;-76
2020/12/20 05:12:35;;;;;;;25.50;19.30;;;8.90;79.10;;;;;;4594217;28;20508;-75
2020/12/20 05:14:57;;;;;;;25.03;20.33;;;;;;;;;;4595054;28;20441;-76
2020/12/20 05:17:17;;;;;;;22.50;18.67;;;6.00;77.60;;;;;;4593292;28;20591;-77
2020/12/20 05:19:46;;;;;;;25.97;20.27;;;;;;;;;;4595388;28;20436;-78
2020/12/20 05:22:20;;;;;;;25.30;19.97;;;6.80;72.50;;;;;;4592764;28;20468;-76
2020/12/20 05:24:44;;;;;;;24.90;20.27;;;9.20;79.30;;;;;;4595118;28;20463;-77
2020/12/20 05:27:02;;;;;;;24.80;20.37;;;6.20;72.10;;;;;;4593082;28;20436;-76
2020/12/20 05:29:27;;;;;;;24.80;20.47;;;9.00;73.70;;;;;;4594673;28;20420;-74
2020/12/20 05:31:47;;;;;;;27.10;21.97;;;6.50;71.90;;;;;;4594203;28;20424;-78
2020/12/20 05:34:26;;;;;;;24.30;20.87;;;;;;;;;;4589210;28;20460;-77
2020/12/20 05:36:43;;;;;;;26.27;21.50;;;;;;;;;;4594895;28;20475;-78
2020/12/20 05:39:37;;;;;;;26.77;21.83;;;5.90;71.70;;;;;;4593100;28;20433;-78
2020/12/20 05:42:09;;;;;;;28.70;23.17;;;;;;;;;;4578775;28;20449;-76
2020/12/20 05:44:26;;;;;;;28.97;23.70;;;7.40;77.80;;;;;;4592847;28;20503;-78
2020/12/20 05:46:48;;;;;;;29.23;23.67;;;;;;;;;;4577881;28;20456;-78
2020/12/20 05:49:17;;;;;;;29.50;24.43;;;8.90;78.90;;;;;;4593380;28;20886;-74
2020/12/20 05:51:37;;;;;;;30.23;24.87;;;;;;;;;;4593515;28;20437;-77
2020/12/20 05:53:52;;;;;;;30.20;25.10;;;6.00;77.40;;;;;;4595481;28;20926;-77
2020/12/20 05:56:08;;;;;;;27.97;22.43;;;;;;;;;;4594425;28;20440;-75
2020/12/20 05:58:25;;;;;;;27.27;22.37;;;;;;;;;;4595484;28;20926;-76
2020/12/20 06:00:42;;;;;;;27.90;24.03;;;;;;;;;;4594032;28;20444;-78
2020/12/20 06:02:58;;;;;;;30.63;24.63;;;5.70;72.20;;;;;;4594496;28;21331;-76
2020/12/20 06:05:14;;;;;;;28.83;23.60;;;7.60;78.50;;;;;;4593921;28;20450;-77
2020/12/20 06:07:30;;;;;;;29.63;23.47;;;;;;;;;;4594354;28;20499;-76
2020/12/20 06:09:56;;;;;;;27.77;24.10;;;7.30;72.70;;;;;;4593628;28;20570;-77
2020/12/20 06:12:27;;;;;;;30.40;24.90;;;9.20;79.80;;;;;;4594605;28;20440;-76
2020/12/20 06:14:46;;;;;;;30.53;25.07;;;8.60;74.10;;;;;;4592146;28;20452;-77
2020/12/20 06:17:12;;;;;;;30.07;24.83;;;;;;;;;;4595252;28;21002;-78
2020/12/20 06:19:54;;;;;;;27.63;22.57;;;8.70;79.10;;;;;;4594566;28;21181;-77
2020/12/20 06:22:10;;;;;;;28.00;23.13;;;;;;;;;;4592391;28;20476;-77
2020/12/20 06:24:27;;;;;;;26.40;22.73;;;8.20;79.00;;;;;;4594063;28;20585;-77
2020/12/20 06:26:45;;;;;;;26.30;23.30;;;;;;;;;;4593569;28;20436;-77
2020/12/20 06:29:04;;;;;;;28.07;23.93;;;8.40;73.80;;;;;;4595162;28;20447;-78
2020/12/20 06:31:21;;;;;;;25.53;22.60;;;6.50;72.60;;;;;;4593310;28;20475;-78
2020/12/20 06:33:39;;;;;;;28.23;23.30;;;;;;;;;;4595385;28;20443;-78
2020/12/20 06:36:02;;;;;;;27.90;23.23;;;8.60;73.60;;;;;;4593032;28;20436;-78
2020/12/20 06:38:22;;;;;;;27.97;22.03;;;;;;;;;;4595324;28;20463;-77
2020/12/20 06:40:44;;;;;;;26.40;22.83;;;7.30;72.50;;;;;;4593306;28;20428;-77
2020/12/20 06:42:59;;;;;;;28.40;23.27;;;7.40;78.10;;;;;;4595134;28;20428;-76
2020/12/20 06:45:18;;;;;;;25.90;22.43;;;8.50;73.50;;;;;;4593454;28;20450;-79
2020/12/20 06:47:41;;;;;;;27.77;22.97;;;;;;;;;;4594489;28;20428;-78
2020/12/20 06:49:57;;;;;;;26.70;22.80;;;;;;;;;;4592860;28;20547;-77
2020/12/20 06:52:23;;;;;;;26.30;21.93;;;;;;;;;;4594080;28;20448;-76
2020/12/20 06:54:39;;;;;;;24.40;19.87;;;;;;;;;;4594369;28;20460;-76
2020/12/20 06:57:09;;;;;;;23.83;19.97;;;6.90;72.50;;;;;;4592685;28;20862;-76
2020/12/20 06:59:39;;;;;;;22.47;18.60;;;;;;;;;;4594681;28;20428;-76
2020/12/20 07:01:54;;;;;;;23.10;19.27;;;;;;;;;;4592604;28;20535;-77
2020/12/20 07:04:14;;;;;;;23.10;19.43;;;8.10;73.60;;;;;;4595108;28;20448;-77
2020/12/20 07:06:31;;;;;;;24.23;19.30;;;7.40;78.10;;;;;;4592709;28;20890;-76
2020/12/20 07:08:54;;;;;;;22.10;19.17;;;6.70;72.20;;;;;;4594567;28;20451;-76
2020/12/20 07:11:20;;;;;;;24.00;19.43;;;8.50;74.00;;;;;;4592761;28;20537;-77
2020/12/20 07:13:36;;;;;;;23.70;20.53;;;;;;;;;;4594093;28;20468;-76
2020/12/20 07:15:52;;;;;;;22.70;19.47;;;;;;;;;;4593574;28;20440;-75
2020/12/20 07:18:08;;;;;;;25.53;21.33;;;;;;;;;;4593306;28;20450;-77
2020/12/20 07:20:33;;;;;;;24.23;19.83;;;6.00;72.50;;;;;;4593720;28;20829;-77
2020/12/20 07:22:50;;;;;;;27.07;22.37;;;;;;;;;;4591279;28;20472;-80
2020/12/20 07:25:06;;;;;;;25.57;21.77;;;;;;;;;;4592503;28;20491;-77
2020/12/20 07:27:24;;;;;;;22.73;19.67;;;6.50;72.60;;;;;;4592575;28;20440;-76
2020/12/20 07:29:40;;;;;;;25.10;20.87;;;;;;;;;;4594305;28;20460;-77
2020/12/20 07:31:57;;;;;;;23.40;18.80;;;;;;;;;;4592655;28;20814;-75
2020/12/20 07:34:12;;;;;;;22.07;19.43;;;;;;;;;;4594090;28;20461;-76
2020/12/20 07:36:30;;;;;;;22.43;18.23;;;7.70;78.40;;;;;;4592142;28;20443;-79
2020/12/20 07:38:46;;;;;;;22.40;17.83;;;;;;;;;;4594214;28;20444;-79
2020/12/20 07:41:06;;;;;;;21.50;18.17;;;6.30;72.60;;;;;;4592201;28;20935;-79
2020/12/20 07:43:21;;;;;;;23.50;19.37;;;;;;;;;;4592832;28;20579;-77
2020/12/20 07:45:39;;;;;;;21.40;18.80;;;;;;;;;;4592673;28;20802;-77
2020/12/20 07:47:55;;;;;;;21.57;19.07;;;;;;;;;;4593965;28;20938;-76
2020/12/20 07:50:10;;;;;;;21.67;18.97;;;;;;;;;;4592279;28;20576;-77
2020/12/20 07:52:27;;;;;;;23.37;19.27;;;;;;;;;;4593849;28;20475;-78
2020/12/20 07:54:45;;;;;;;22.87;18.87;;;;;;;;;;4592661;28;20511;-77
2020/12/20 07:57:01;;;;;;;23.70;19.43;;;;;;;;;;4592951;28;20502;-77
2020/12/20 07:59:18;;;;;;;25.67;20.57;;;6.20;72.10;;;;;;4591699;28;20811;-77
2020/12/20 08:01:34;;;;;;;23.90;20.53;;;;;;;;;;4592647;28;20471;-79
2020/12/20 08:04:00;;;;;;;22.73;19.87;;;8.30;78.80;;;;;;4593123;28;20455;-78
2020/12/20 08:06:17;;;;;;;24.00;19.53;;;;;;;;;;4592237;28;20822;-78
2020/12/20 08:08:33;;;;;;;22.03;18.37;;;;;;;;;;4596298;28;20452;-78
2020/12/20 08:10:49;;;;;;;23.27;19.23;;;;;;;;;;4595712;28;20570;-77
2020/12/20 08:13:05;;;;;;;23.77;19.50;;;;;;;;;;4597176;28;20987;-78
2020/12/20 08:15:21;;;;;;;21.67;17.93;;;;;;;;;;4595531;28;20455;-78
2020/12/20 08:17:36;;;;;;;20.17;16.53;;;7.60;78.20;;;;;;4597236;28;20486;-77
2020/12/20 08:19:55;;;;;;;23.07;19.00;;;;;;;;;;4595513;28;20462;-78
2020/12/20 08:22:14;;;;;;;23.27;20.53;;;8.50;73.40;;;;;;4597406;28;20468;-78
2020/12/20 08:24:35;;;;;;;19.57;16.70;;;8.50;78.20;;;;;;4595044;28;20444;-76
2020/12/20 08:26:53;;;;;;;22.47;18.20;;;8.40;78.50;;;;;;4597367;28;20435;-75
2020/12/20 08:29:09;;;;;;;22.40;18.50;;;;;;;;;;4595365;28;20424;-75
2020/12/20 08:31:33;;;;;;;24.93;19.47;;;7.20;77.60;;;;;;4596858;28;20562;-77
2020/12/20 08:33:49;;;;;;;24.17;20.53;;;;;;;;;;4595692;28;20436;-76
2020/12/20 08:36:04;;;;;;;26.27;20.73;;;8.20;78.00;;;;;;4596258;28;20448;-76
2020/12/20 08:38:20;;;;;;;23.53;20.87;;;;;;;;;;4595890;28;20531;-77
2020/12/20 08:40:37;;;;;;;27.27;23.23;;;;;;;;;;4595760;28;20550;-77
2020/12/20 08:42:58;;;;;;;29.50;22.83;;;8.20;72.80;;;;;;4595056;28;20542;-77
2020/12/20 08:45:19;;;;;;;25.40;22.40;;;8.50;72.90;;;;;;4595616;28;20432;-77
2020/12/20 08:47:36;;;;;;;25.50;20.60;;;7.00;77.30;;;;;;4596966;28;20444;-77
2020/12/20 08:49:55;;;;;;;23.03;19.73;;;7.00;71.60;;;;;;4595042;28;20467;-77
2020/12/20 08:52:12;;;;;;;26.00;20.23;;;6.70;77.30;;;;;;4597038;28;20804;-76
2020/12/20 08:54:31;;;;;;;24.70;21.20;;;;;;;;;;4594659;28;20444;-77
2020/12/20 08:56:55;;;;;;;23.30;19.17;;;;;;;;;;4597014;28;20442;-76
2020/12/20 08:59:10;;;;;;;27.30;20.67;;;;;;;;;;4593130;28;20464;-75
2020/12/20 09:01:40;;;;;;;24.83;21.40;;;7.30;78.00;;;;;;4597119;28;20768;-76
2020/12/20 09:03:56;;;;;;;25.73;22.23;;;7.10;77.50;;;;;;4595131;28;20436;-76
2020/12/20 09:06:14;;;;;;;26.87;21.50;;;6.20;76.90;;;;;;4596201;28;20443;-77
2020/12/20 09:08:34;;;;;;;25.90;21.30;;;;;;;;;;4595512;28;20420;-76
2020/12/20 09:10:49;;;;;;;27.10;21.57;;;;;;;;;;4595569;28;21029;-77
2020/12/20 09:13:08;;;;;;;30.53;23.40;;;6.00;71.40;;;;;;4595531;28;20440;-77
2020/12/20 09:15:34;;;;;;;29.03;24.63;;;8.90;73.10;;;;;;4595422;28;20856;-78
2020/12/20 09:17:51;;;;;;;31.80;26.03;;;6.70;71.80;;;;;;4578738;28;20496;-75
2020/12/20 09:20:07;;;;;;;29.00;23.50;;;;;;;;;;4594161;28;20436;-76
2020/12/20 09:22:44;;;;;;;28.30;22.87;;;7.60;73.90;;;;;;4595897;28;20888;-77
2020/12/20 09:24:59;;;;;;;28.07;23.40;;;;;;;;;;4594183;28;20492;-77
2020/12/20 09:27:15;;;;;;;27.37;23.70;;;;;;;;;;4596515;28;20440;-78
2020/12/20 09:29:32;;;;;;;28.30;23.80;;;;;;;;;;4593296;28;20487;-80
2020/12/20 09:31:48;;;;;;;28.43;24.47;;;;;;;;;;4594977;28;20518;-79
2020/12/20 09:34:04;;;;;;;30.57;25.33;;;;;;;;;;4592922;28;20978;-76
2020/12/20 09:36:21;;;;;;;26.73;22.80;;;;;;;;;;4596182;28;20450;-77
2020/12/20 09:38:39;;;;;;;27.63;23.33;;;;;;;;;;4595499;28;21211;-78
2020/12/20 09:41:02;;;;;;;25.13;21.27;;;;;;;;;;4596611;28;20523;-78
2020/12/20 09:43:18;;;;;;;23.73;20.07;;;;;;;;;;4596830;28;20440;-76
2020/12/20 09:45:35;;;;;;;24.00;20.93;;;;;;;;;;4595878;28;20539;-76
2020/12/20 09:47:51;;;;;;;27.27;21.80;;;;;;;;;;4595380;28;20493;-76
2020/12/20 09:50:07;;;;;;;23.23;19.57;;;;;;;;;;4594571;28;20934;-77
2020/12/20 09:52:22;;;;;;;26.30;21.63;;;8.30;78.40;;;;;;4595540;28;20452;-76
2020/12/20 09:54:49;;;;;;;25.90;22.17;;;7.30;77.40;;;;;;4594188;28;20474;-77
2020/12/20 09:57:08;;;;;;;25.87;21.60;;;6.10;71.50;;;;;;4595812;28;20498;-76
2020/12/20 09:59:23;;;;;;;26.00;22.53;;;;;;;;;;4593946;28;20538;-76
2020/12/20 10:01:40;;;;;;;26.87;21.57;;;;;;;;;;4595556;28;20483;-75
2020/12/20 10:03:55;;;;;;;24.77;20.40;;;8.70;78.70;;;;;;4591785;28;20444;-76
2020/12/20 10:06:11;;;;;;;24.80;20.33;;;;;;;;;;4595376;28;20478;-77
2020/12/20 10:08:28;;;;;;;24.83;20.67;;;;;;;;;;4592705;28;20445;-77
2020/12/20 10:10:44;;;;;;;24.80;20.97;;;;;;;;;;4595726;28;20471;-77
2020/12/20 10:13:00;;;;;;;23.63;20.73;;;;;;;;;;4591940;28;20444;-76
2020/12/20 10:15:16;;;;;;;26.67;21.83;;;;;;;;;;4595398;28;20916;-77
2020/12/20 10:17:33;;;;;;;26.00;22.60;;;;;;;;;;4593514;28;20440;-76
2020/12/20 10:19:49;;;;;;;25.83;20.03;;;;;;;;;;4595361;28;20440;-79
2020/12/20 10:22:05;;;;;;;27.93;23.23;;;;;;;;;;4593378;28;20559;-79
2020/12/20 10:24:21;;;;;;;26.83;22.63;;;8.30;78.10;;;;;;4594808;28;20444;-77
2020/12/20 10:26:37;;;;;;;27.00;23.50;;;;;;;;;;4592308;28;20475;-78
2020/12/20 10:28:52;;;;;;;25.50;21.77;;;;;;;;;;4594257;28;20539;-77
2020/12/20 10:31:08;;;;;;;30.23;21.07;;;8.90;78.10;;;;;;4592817;28;20560;-79
2020/12/20 10:33:25;;;;;;;25.33;21.50;;;;;;;;;;4592667;28;20440;-78
2020/12/20 10:35:41;;;;;;;27.13;22.83;;;;;;;;;;4592873;28;20850;-78
2020/12/20 10:37:58;;;;;;;30.63;24.73;;;;;;;;;;4593631;28;20563;-78
2020/12/20 10:40:14;;;;;;;29.17;24.63;;;;;;;;;;4594618;28;20444;-78
2020/12/20 10:42:30;;;;;;;28.67;20.20;;;;;;;;;;4592237;28;20879;-75
2020/12/20 10:44:46;;;;;;;25.53;22.10;;;;;;;;;;4594620;28;20452;-75
2020/12/20 10:47:01;;;;;;;27.73;22.67;;;7.80;74.90;;;;;;4593231;28;20897;-76
2020/12/20 10:49:18;;;;;;;26.00;22.10;;;;;;;;;;4594750;28;20558;-76
2020/12/20 10:51:34;;;;;;;26.23;22.30;;;;;;;;;;4593150;28;20480;-77
2020/12/20 10:53:50;;;;;;;26.63;22.00;;;;;;;;;;4594524;28;20535;-76
2020/12/20 10:56:06;;;;;;;30.53;24.70;;;;;;;;;;4592934;28;20514;-79
2020/12/20 10:58:22;;;;;;;26.27;21.93;;;;;;;;;;4594923;28;20500;-76
2020/12/20 11:00:37;;;;;;;28.07;23.10;;;7.70;74.00;;;;;;4592685;28;20440;-76
2020/12/20 11:02:54;;;;;;;24.13;20.10;;;;;;;;;;4594861;28;20448;-76
2020/12/20 11:05:14;;;;;;;24.63;21.17;;;;;;;;;;4591207;28;20951;-78
2020/12/20 11:07:30;;;;;;;21.43;18.70;;;7.70;74.60;;;;;;4594491;28;20436;-77
2020/12/20 11:09:46;;;;;;;27.37;19.67;;;;;;;;;;4592757;28;20448;-76
2020/12/20 11:12:06;;;;;;;23.27;19.93;;;;;;;;;;4592721;28;20476;-77
2020/12/20 11:14:24;;;;;;;24.50;20.70;;;7.70;73.60;;;;;;4593085;28;20438;-78
2020/12/20 11:16:40;;;;;;;28.03;21.30;;;;;;;;;;4593739;28;21017;-79
2020/12/20 11:18:56;;;;;;;25.37;21.90;;;8.20;69.40;;;;;;4593734;28;20436;-79
2020/12/20 11:21:16;;;;;;;23.53;20.20;;;8.80;73.70;;;;;;4592984;28;20522;-77
2020/12/20 11:23:32;;;;;;;26.93;21.50;;;8.50;73.00;;;;;;4593920;28;20428;-76
2020/12/20 11:25:48;;;;;;;25.87;21.73;;;;;;;;;;4592781;28;20464;-77
2020/12/20 11:28:06;;;;;;;29.43;21.93;;;;;;;;;;4594563;28;20432;-75
2020/12/20 11:30:22;;;;;;;26.30;21.33;;;;;;;;;;4592638;28;21010;-77
2020/12/20 11:32:38;;;;;;;28.73;23.40;;;7.60;72.30;;;;;;4592541;28;20849;-77
2020/12/20 11:34:54;;;;;;;25.90;21.63;;;;;;;;;;4591077;28;20986;-78
2020/12/20 11:37:11;;;;;;;28.47;22.60;;;;;;;;;;4592397;28;20919;-77
2020/12/20 11:39:27;;;;;;;27.40;21.83;;;9.10;73.90;;;;;;4591439;28;20447;-78
2020/12/20 11:41:42;;;;;;;25.03;20.60;;;8.10;73.20;;;;;;4594195;28;20451;-76
2020/12/20 11:43:59;;;;;;;26.37;20.77;;;8.60;72.50;;;;;;4591949;28;20763;-78
2020/12/20 11:46:14;;;;;;;27.73;21.10;;;;;;;;;;4594118;28;20436;-78
2020/12/20 11:48:32;;;;;;;25.27;20.47;;;8.90;72.70;;;;;;4592295;28;20490;-79
2020/12/20 11:50:48;;;;;;;27.33;20.43;;;;;;;;;;4594050;28;20867;-78
2020/12/20 11:53:05;;;;;;;24.87;20.10;;;;;;;;;;4592202;28;20439;-78
2020/12/20 11:55:21;;;;;;;25.93;20.93;;;;;;;;;;4598821;28;20467;-90
2020/12/20 11:57:37;;;;;;;26.87;21.00;;;7.90;72.40;;;;;;4596601;28;20566;-86
2020/12/20 11:59:53;;;;;;;28.53;21.67;;;;;;;;;;4597342;28;20448;-84
2020/12/20 12:02:08;;;;;;;28.27;22.07;;;;;;;;;;4599425;28;20440;-79
2020/12/20 12:04:24;;;;;;;27.03;22.20;;;;;;;;;;4600562;28;20539;-83
2020/12/20 12:06:42;;;;;;;27.40;22.23;;;;;;;;;;4593656;28;20443;-83
2020/12/20 12:08:59;;;;;;;28.93;22.83;;;;;;;;;;4593438;28;20428;-84
2020/12/20 12:11:18;;;;;;;29.23;22.67;;;;;;;;;;4593794;28;20526;-82
2020/12/20 12:13:34;;;;;;;29.00;24.30;;;;;;;;;;4592277;28;20447;-80
2020/12/20 12:15:50;;;;;;;29.63;23.80;;;;;;;;;;4594429;28;20436;-81
2020/12/20 12:18:06;;;;;;;28.93;24.40;;;;;;;;;;4591555;28;20444;-84
2020/12/20 12:20:23;;;;;;;29.10;22.33;;;;;;;;;;4594624;28;20523;-83
2020/12/20 12:22:39;;;;;;;29.70;23.10;;;;;;;;;;4591747;28;20508;-80
2020/12/20 12:24:57;;;;;;;29.93;24.20;;;;;;;;;;4593560;28;20483;-78
2020/12/20 12:27:13;;;;;;;29.93;24.60;;;8.70;74.40;;;;;;4591582;28;20467;-77
2020/12/20 12:29:29;;;;;;;28.43;23.50;;;;;;;;;;4593746;28;20939;-75
2020/12/20 12:31:44;;;;;;;31.30;23.87;;;;;;;;;;4591736;28;21039;-81
2020/12/20 12:34:00;;;;;;;27.87;22.83;;;;;;;;;;4594423;28;20443;-78
2020/12/20 12:36:16;;;;;;;29.07;22.83;;;;;;;;;;4591888;28;20858;-79
2020/12/20 12:38:31;;;;;;;30.83;24.60;;;;;;;;;;4594352;28;20448;-80
2020/12/20 12:40:49;;;;;;;29.77;23.30;;;;;;;;;;4592258;28;20439;-80
2020/12/20 12:43:04;;;;;;;30.77;24.60;;;;;;;;;;4594316;28;20475;-87
2020/12/20 12:45:23;;;;;;;29.93;23.23;;;;;;;;;;4592511;28;20436;-79
2020/12/20 12:47:39;;;;;;;29.50;23.47;;;;;;;;;;4593593;28;20440;-80
2020/12/20 12:49:55;;;;;;;30.17;24.80;;;;;;;;;;4593112;28;20483;-80
2020/12/20 12:52:10;;;;;;;32.17;25.47;;;10.00;76.20;;;;;;4593449;28;20570;-81
2020/12/20 12:54:27;;;;;;;33.10;24.93;;;9.10;75.80;;;;;;4593829;28;20439;-82